sensor_id;sensor_type;location;lat;lon;timestamp;P1;durP1;ratioP1;P2;durP2;ratioP2
68800;SDS011;55784;50.734;7.086;2022-12-29T00:01:38;2.03;;;0.40;;
68800;SDS011;55784;50.734;7.086;2022-12-29T00:04:04;2.47;;;0.30;;
68800;SDS011;55784;50.734;7.086;2022-12-29T00:06:30;2.58;;;0.45;;
68800;SDS011;55784;50.734;7.086;2022-12-29T00:08:55;0.90;;;0.28;;
68800;SDS011;55784;50.734;7.086;2022-12-29T00:11:22;1.95;;;0.30;;
68800;SDS011;55784;50.734;7.086;2022-12-29T00:13:49;1.23;;;0.30;;
68800;SDS011;55784;50.734;7.086;2022-12-29T00:16:34;2.47;;;0.40;;
68800;SDS011;55784;50.734;7.086;2022-12-29T00:19:00;3.40;;;0.60;;
68800;SDS011;55784;50.734;7.086;2022-12-29T00:21:26;2.25;;;0.50;;
68800;SDS011;55784;50.734;7.086;2022-12-29T00:24:20;0.90;;;0.20;;
68800;SDS011;55784;50.734;7.086;2022-12-29T00:26:53;1.23;;;0.20;;
68800;SDS011;55784;50.734;7.086;2022-12-29T00:29:40;1.45;;;0.20;;
68800;SDS011;55784;50.734;7.086;2022-12-29T00:32:24;1.15;;;0.20;;
68800;SDS011;55784;50.734;7.086;2022-12-29T00:35:09;0.70;;;0.20;;
68800;SDS011;55784;50.734;7.086;2022-12-29T00:37:39;2.40;;;0.20;;
68800;SDS011;55784;50.734;7.086;2022-12-29T00:40:28;1.15;;;0.25;;
68800;SDS011;55784;50.734;7.086;2022-12-29T00:43:11;0.60;;;0.20;;
68800;SDS011;55784;50.734;7.086;2022-12-29T00:45:55;1.63;;;0.30;;
68800;SDS011;55784;50.734;7.086;2022-12-29T00:48:21;0.97;;;0.20;;
68800;SDS011;55784;50.734;7.086;2022-12-29T00:51:11;0.47;;;0.10;;
68800;SDS011;55784;50.734;7.086;2022-12-29T00:53:36;0.85;;;0.20;;
68800;SDS011;55784;50.734;7.086;2022-12-29T00:56:01;1.00;;;0.20;;
68800;SDS011;55784;50.734;7.086;2022-12-29T00:58:27;0.87;;;0.13;;
68800;SDS011;55784;50.734;7.086;2022-12-29T01:01:00;0.57;;;0.10;;
68800;SDS011;55784;50.734;7.086;2022-12-29T01:03:29;1.00;;;0.20;;
68800;SDS011;55784;50.734;7.086;2022-12-29T01:05:55;1.23;;;0.17;;
68800;SDS011;55784;50.734;7.086;2022-12-29T01:08:20;0.50;;;0.10;;
68800;SDS011;55784;50.734;7.086;2022-12-29T01:10:46;0.77;;;0.17;;
68800;SDS011;55784;50.734;7.086;2022-12-29T01:13:11;1.53;;;0.20;;
68800;SDS011;55784;50.734;7.086;2022-12-29T01:15:36;0.47;;;0.10;;
68800;SDS011;55784;50.734;7.086;2022-12-29T01:18:03;1.38;;;0.20;;
68800;SDS011;55784;50.734;7.086;2022-12-29T01:20:28;0.70;;;0.13;;
68800;SDS011;55784;50.734;7.086;2022-12-29T01:22:53;1.30;;;0.20;;
68800;SDS011;55784;50.734;7.086;2022-12-29T01:25:19;0.80;;;0.20;;
68800;SDS011;55784;50.734;7.086;2022-12-29T01:27:45;1.07;;;0.20;;
68800;SDS011;55784;50.734;7.086;2022-12-29T01:30:10;1.67;;;0.30;;
68800;SDS011;55784;50.734;7.086;2022-12-29T01:32:36;1.40;;;0.23;;
68800;SDS011;55784;50.734;7.086;2022-12-29T01:35:01;0.97;;;0.20;;
68800;SDS011;55784;50.734;7.086;2022-12-29T01:37:27;1.08;;;0.20;;
68800;SDS011;55784;50.734;7.086;2022-12-29T01:39:52;1.17;;;0.25;;
68800;SDS011;55784;50.734;7.086;2022-12-29T01:42:18;2.33;;;0.20;;
68800;SDS011;55784;50.734;7.086;2022-12-29T01:44:51;1.27;;;0.20;;
68800;SDS011;55784;50.734;7.086;2022-12-29T01:47:24;2.10;;;0.30;;
68800;SDS011;55784;50.734;7.086;2022-12-29T01:49:52;1.20;;;0.32;;
68800;SDS011;55784;50.734;7.086;2022-12-29T01:52:20;2.08;;;0.30;;
68800;SDS011;55784;50.734;7.086;2022-12-29T01:54:48;1.50;;;0.30;;
68800;SDS011;55784;50.734;7.086;2022-12-29T01:57:19;1.52;;;0.30;;
68800;SDS011;55784;50.734;7.086;2022-12-29T01:59:50;3.73;;;0.40;;
68800;SDS011;55784;50.734;7.086;2022-12-29T02:02:21;0.90;;;0.20;;
68800;SDS011;55784;50.734;7.086;2022-12-29T02:04:46;2.47;;;0.40;;
68800;SDS011;55784;50.734;7.086;2022-12-29T02:07:19;3.15;;;0.50;;
68800;SDS011;55784;50.734;7.086;2022-12-29T02:09:47;2.08;;;0.40;;
68800;SDS011;55784;50.734;7.086;2022-12-29T02:12:14;1.75;;;0.30;;
68800;SDS011;55784;50.734;7.086;2022-12-29T02:14:40;2.10;;;0.40;;
68800;SDS011;55784;50.734;7.086;2022-12-29T02:31:29;1.33;;;0.22;;
68800;SDS011;55784;50.734;7.086;2022-12-29T02:39:14;3.28;;;0.40;;
68800;SDS011;55784;50.734;7.086;2022-12-29T02:41:51;1.48;;;0.30;;
68800;SDS011;55784;50.734;7.086;2022-12-29T02:44:53;2.03;;;0.28;;
68800;SDS011;55784;50.734;7.086;2022-12-29T02:47:35;1.35;;;0.30;;
68800;SDS011;55784;50.734;7.086;2022-12-29T02:52:57;1.50;;;0.30;;
68800;SDS011;55784;50.734;7.086;2022-12-29T02:55:25;1.63;;;0.32;;
68800;SDS011;55784;50.734;7.086;2022-12-29T02:58:06;1.20;;;0.30;;
68800;SDS011;55784;50.734;7.086;2022-12-29T03:00:53;2.37;;;0.37;;
68800;SDS011;55784;50.734;7.086;2022-12-29T03:03:33;1.92;;;0.30;;
68800;SDS011;55784;50.734;7.086;2022-12-29T03:06:48;1.75;;;0.30;;
68800;SDS011;55784;50.734;7.086;2022-12-29T03:09:26;1.85;;;0.30;;
68800;SDS011;55784;50.734;7.086;2022-12-29T03:12:24;1.80;;;0.30;;
68800;SDS011;55784;50.734;7.086;2022-12-29T03:14:52;2.03;;;0.40;;
68800;SDS011;55784;50.734;7.086;2022-12-29T03:17:46;1.42;;;0.40;;
68800;SDS011;55784;50.734;7.086;2022-12-29T03:20:20;1.90;;;0.30;;
68800;SDS011;55784;50.734;7.086;2022-12-29T03:22:51;1.63;;;0.30;;
68800;SDS011;55784;50.734;7.086;2022-12-29T03:25:23;2.67;;;0.40;;
68800;SDS011;55784;50.734;7.086;2022-12-29T03:27:54;1.80;;;0.40;;
68800;SDS011;55784;50.734;7.086;2022-12-29T03:30:22;2.42;;;0.35;;
68800;SDS011;55784;50.734;7.086;2022-12-29T03:32:54;2.83;;;0.50;;
68800;SDS011;55784;50.734;7.086;2022-12-29T03:35:25;2.85;;;0.40;;
68800;SDS011;55784;50.734;7.086;2022-12-29T03:37:53;2.22;;;0.50;;
68800;SDS011;55784;50.734;7.086;2022-12-29T03:40:24;2.90;;;0.57;;
68800;SDS011;55784;50.734;7.086;2022-12-29T03:42:52;2.90;;;0.47;;
68800;SDS011;55784;50.734;7.086;2022-12-29T03:45:18;3.35;;;0.55;;
68800;SDS011;55784;50.734;7.086;2022-12-29T03:47:43;2.23;;;0.40;;
68800;SDS011;55784;50.734;7.086;2022-12-29T03:50:11;2.93;;;0.40;;
68800;SDS011;55784;50.734;7.086;2022-12-29T03:52:36;2.42;;;0.50;;
68800;SDS011;55784;50.734;7.086;2022-12-29T03:55:02;1.77;;;0.50;;
68800;SDS011;55784;50.734;7.086;2022-12-29T03:57:27;2.53;;;0.50;;
68800;SDS011;55784;50.734;7.086;2022-12-29T03:59:53;2.40;;;0.50;;
68800;SDS011;55784;50.734;7.086;2022-12-29T04:02:18;4.77;;;0.50;;
68800;SDS011;55784;50.734;7.086;2022-12-29T04:04:43;2.30;;;0.43;;
68800;SDS011;55784;50.734;7.086;2022-12-29T04:07:09;1.73;;;0.40;;
68800;SDS011;55784;50.734;7.086;2022-12-29T04:09:34;2.43;;;0.40;;
68800;SDS011;55784;50.734;7.086;2022-12-29T04:11:59;2.13;;;0.47;;
68800;SDS011;55784;50.734;7.086;2022-12-29T04:14:24;2.63;;;0.50;;
68800;SDS011;55784;50.734;7.086;2022-12-29T04:16:50;2.17;;;0.30;;
68800;SDS011;55784;50.734;7.086;2022-12-29T04:19:15;1.77;;;0.30;;
68800;SDS011;55784;50.734;7.086;2022-12-29T04:21:40;2.70;;;0.60;;
68800;SDS011;55784;50.734;7.086;2022-12-29T04:24:06;1.50;;;0.20;;
68800;SDS011;55784;50.734;7.086;2022-12-29T04:26:32;1.38;;;0.30;;
68800;SDS011;55784;50.734;7.086;2022-12-29T04:28:58;1.93;;;0.40;;
68800;SDS011;55784;50.734;7.086;2022-12-29T04:31:23;2.53;;;0.30;;
68800;SDS011;55784;50.734;7.086;2022-12-29T04:33:48;1.13;;;0.30;;
68800;SDS011;55784;50.734;7.086;2022-12-29T04:36:14;0.90;;;0.20;;
68800;SDS011;55784;50.734;7.086;2022-12-29T04:38:39;2.13;;;0.30;;
68800;SDS011;55784;50.734;7.086;2022-12-29T04:41:05;1.63;;;0.30;;
68800;SDS011;55784;50.734;7.086;2022-12-29T04:43:30;1.83;;;0.40;;
68800;SDS011;55784;50.734;7.086;2022-12-29T04:45:55;2.10;;;0.37;;
68800;SDS011;55784;50.734;7.086;2022-12-29T04:48:21;2.70;;;0.50;;
68800;SDS011;55784;50.734;7.086;2022-12-29T04:50:49;1.10;;;0.33;;
68800;SDS011;55784;50.734;7.086;2022-12-29T04:53:15;1.70;;;0.30;;
68800;SDS011;55784;50.734;7.086;2022-12-29T04:55:41;1.05;;;0.30;;
68800;SDS011;55784;50.734;7.086;2022-12-29T04:58:07;1.50;;;0.40;;
68800;SDS011;55784;50.734;7.086;2022-12-29T05:00:32;0.60;;;0.10;;
68800;SDS011;55784;50.734;7.086;2022-12-29T05:02:57;0.60;;;0.20;;
68800;SDS011;55784;50.734;7.086;2022-12-29T05:05:23;1.83;;;0.30;;
68800;SDS011;55784;50.734;7.086;2022-12-29T05:07:48;1.35;;;0.20;;
68800;SDS011;55784;50.734;7.086;2022-12-29T05:10:13;1.63;;;0.20;;
68800;SDS011;55784;50.734;7.086;2022-12-29T05:12:39;1.33;;;0.20;;
68800;SDS011;55784;50.734;7.086;2022-12-29T05:15:05;2.47;;;0.20;;
68800;SDS011;55784;50.734;7.086;2022-12-29T05:17:31;2.08;;;0.28;;
68800;SDS011;55784;50.734;7.086;2022-12-29T05:19:57;1.63;;;0.23;;
68800;SDS011;55784;50.734;7.086;2022-12-29T05:22:22;1.13;;;0.30;;
68800;SDS011;55784;50.734;7.086;2022-12-29T05:24:47;3.67;;;0.40;;
68800;SDS011;55784;50.734;7.086;2022-12-29T05:27:13;2.00;;;0.30;;
68800;SDS011;55784;50.734;7.086;2022-12-29T05:29:38;3.58;;;0.88;;
68800;SDS011;55784;50.734;7.086;2022-12-29T05:32:04;1.10;;;0.27;;
68800;SDS011;55784;50.734;7.086;2022-12-29T05:34:29;2.00;;;0.40;;
68800;SDS011;55784;50.734;7.086;2022-12-29T05:36:55;2.00;;;0.30;;
68800;SDS011;55784;50.734;7.086;2022-12-29T05:39:20;1.83;;;0.30;;
68800;SDS011;55784;50.734;7.086;2022-12-29T05:41:45;1.80;;;0.30;;
68800;SDS011;55784;50.734;7.086;2022-12-29T05:44:11;2.37;;;0.40;;
68800;SDS011;55784;50.734;7.086;2022-12-29T05:46:36;1.10;;;0.30;;
68800;SDS011;55784;50.734;7.086;2022-12-29T05:49:01;2.70;;;0.50;;
68800;SDS011;55784;50.734;7.086;2022-12-29T05:51:27;1.20;;;0.30;;
68800;SDS011;55784;50.734;7.086;2022-12-29T05:53:52;1.27;;;0.30;;
68800;SDS011;55784;50.734;7.086;2022-12-29T05:56:17;2.90;;;0.60;;
68800;SDS011;55784;50.734;7.086;2022-12-29T05:58:43;2.37;;;0.40;;
68800;SDS011;55784;50.734;7.086;2022-12-29T06:01:08;2.57;;;0.40;;
68800;SDS011;55784;50.734;7.086;2022-12-29T06:03:33;3.27;;;0.50;;
68800;SDS011;55784;50.734;7.086;2022-12-29T06:05:58;2.57;;;0.60;;
68800;SDS011;55784;50.734;7.086;2022-12-29T06:08:24;2.90;;;0.53;;
68800;SDS011;55784;50.734;7.086;2022-12-29T06:10:49;3.03;;;0.70;;
68800;SDS011;55784;50.734;7.086;2022-12-29T06:13:15;3.70;;;0.70;;
68800;SDS011;55784;50.734;7.086;2022-12-29T06:15:41;3.73;;;0.50;;
68800;SDS011;55784;50.734;7.086;2022-12-29T06:18:07;3.45;;;0.60;;
68800;SDS011;55784;50.734;7.086;2022-12-29T06:20:32;4.50;;;0.67;;
68800;SDS011;55784;50.734;7.086;2022-12-29T06:22:58;3.55;;;0.68;;
68800;SDS011;55784;50.734;7.086;2022-12-29T06:25:23;4.40;;;0.60;;
68800;SDS011;55784;50.734;7.086;2022-12-29T06:27:49;4.60;;;0.63;;
68800;SDS011;55784;50.734;7.086;2022-12-29T06:30:14;4.17;;;0.57;;
68800;SDS011;55784;50.734;7.086;2022-12-29T06:32:39;3.10;;;0.70;;
68800;SDS011;55784;50.734;7.086;2022-12-29T06:35:05;4.55;;;0.82;;
68800;SDS011;55784;50.734;7.086;2022-12-29T06:37:31;4.10;;;0.80;;
68800;SDS011;55784;50.734;7.086;2022-12-29T06:39:57;5.43;;;0.90;;
68800;SDS011;55784;50.734;7.086;2022-12-29T06:42:22;4.57;;;0.80;;
68800;SDS011;55784;50.734;7.086;2022-12-29T06:44:47;4.07;;;0.77;;
68800;SDS011;55784;50.734;7.086;2022-12-29T06:47:13;3.55;;;0.70;;
68800;SDS011;55784;50.734;7.086;2022-12-29T06:49:38;4.40;;;0.70;;
68800;SDS011;55784;50.734;7.086;2022-12-29T06:52:04;3.43;;;0.60;;
68800;SDS011;55784;50.734;7.086;2022-12-29T06:54:32;3.17;;;0.40;;
68800;SDS011;55784;50.734;7.086;2022-12-29T06:56:57;4.88;;;0.70;;
68800;SDS011;55784;50.734;7.086;2022-12-29T06:59:23;2.67;;;0.30;;
68800;SDS011;55784;50.734;7.086;2022-12-29T07:01:49;1.02;;;0.20;;
68800;SDS011;55784;50.734;7.086;2022-12-29T07:04:15;3.17;;;0.35;;
68800;SDS011;55784;50.734;7.086;2022-12-29T07:06:40;1.57;;;0.40;;
68800;SDS011;55784;50.734;7.086;2022-12-29T07:09:06;1.57;;;0.10;;
68800;SDS011;55784;50.734;7.086;2022-12-29T07:11:32;2.65;;;0.10;;
68800;SDS011;55784;50.734;7.086;2022-12-29T07:13:58;2.83;;;0.20;;
68800;SDS011;55784;50.734;7.086;2022-12-29T07:16:23;2.20;;;0.20;;
68800;SDS011;55784;50.734;7.086;2022-12-29T07:18:49;3.33;;;0.40;;
68800;SDS011;55784;50.734;7.086;2022-12-29T07:21:14;3.03;;;0.40;;
68800;SDS011;55784;50.734;7.086;2022-12-29T07:23:39;3.00;;;0.20;;
68800;SDS011;55784;50.734;7.086;2022-12-29T07:26:05;1.87;;;0.30;;
68800;SDS011;55784;50.734;7.086;2022-12-29T07:28:33;2.10;;;0.20;;
68800;SDS011;55784;50.734;7.086;2022-12-29T07:31:00;3.30;;;0.68;;
68800;SDS011;55784;50.734;7.086;2022-12-29T07:33:28;2.27;;;0.30;;
68800;SDS011;55784;50.734;7.086;2022-12-29T07:35:53;2.17;;;0.30;;
68800;SDS011;55784;50.734;7.086;2022-12-29T07:38:19;2.63;;;0.40;;
68800;SDS011;55784;50.734;7.086;2022-12-29T07:40:44;2.65;;;0.40;;
68800;SDS011;55784;50.734;7.086;2022-12-29T07:43:10;3.07;;;0.43;;
68800;SDS011;55784;50.734;7.086;2022-12-29T07:45:35;2.43;;;0.50;;
68800;SDS011;55784;50.734;7.086;2022-12-29T07:48:00;1.87;;;0.33;;
68800;SDS011;55784;50.734;7.086;2022-12-29T07:50:27;2.00;;;0.43;;
68800;SDS011;55784;50.734;7.086;2022-12-29T07:52:53;1.60;;;0.40;;
68800;SDS011;55784;50.734;7.086;2022-12-29T07:55:18;3.80;;;0.40;;
68800;SDS011;55784;50.734;7.086;2022-12-29T07:57:43;3.07;;;0.30;;
68800;SDS011;55784;50.734;7.086;2022-12-29T08:00:09;4.05;;;0.32;;
68800;SDS011;55784;50.734;7.086;2022-12-29T08:02:35;1.13;;;0.13;;
68800;SDS011;55784;50.734;7.086;2022-12-29T08:05:01;3.10;;;0.50;;
68800;SDS011;55784;50.734;7.086;2022-12-29T08:07:26;1.70;;;0.10;;
68800;SDS011;55784;50.734;7.086;2022-12-29T08:09:52;4.22;;;0.60;;
68800;SDS011;55784;50.734;7.086;2022-12-29T08:12:18;2.60;;;0.30;;
68800;SDS011;55784;50.734;7.086;2022-12-29T08:14:44;2.43;;;0.30;;
68800;SDS011;55784;50.734;7.086;2022-12-29T08:17:09;3.33;;;0.30;;
68800;SDS011;55784;50.734;7.086;2022-12-29T08:19:35;2.60;;;0.38;;
68800;SDS011;55784;50.734;7.086;2022-12-29T08:25:10;1.52;;;0.30;;
68800;SDS011;55784;50.734;7.086;2022-12-29T08:28:02;2.13;;;0.30;;
68800;SDS011;55784;50.734;7.086;2022-12-29T08:30:31;2.75;;;0.43;;
68800;SDS011;55784;50.734;7.086;2022-12-29T08:33:05;3.40;;;0.60;;
68800;SDS011;55784;50.734;7.086;2022-12-29T08:46:56;1.88;;;0.22;;
68800;SDS011;55784;50.734;7.086;2022-12-29T08:49:40;2.33;;;0.40;;
68800;SDS011;55784;50.734;7.086;2022-12-29T08:52:44;2.95;;;0.43;;
68800;SDS011;55784;50.734;7.086;2022-12-29T08:55:33;4.50;;;0.32;;
68800;SDS011;55784;50.734;7.086;2022-12-29T08:58:09;2.05;;;0.28;;
68800;SDS011;55784;50.734;7.086;2022-12-29T09:00:43;2.55;;;0.30;;
68800;SDS011;55784;50.734;7.086;2022-12-29T09:07:10;4.20;;;0.43;;
68800;SDS011;55784;50.734;7.086;2022-12-29T09:12:16;3.28;;;0.40;;
68800;SDS011;55784;50.734;7.086;2022-12-29T09:14:42;3.72;;;0.30;;
68800;SDS011;55784;50.734;7.086;2022-12-29T09:17:10;2.42;;;0.30;;
68800;SDS011;55784;50.734;7.086;2022-12-29T09:19:55;3.00;;;0.30;;
68800;SDS011;55784;50.734;7.086;2022-12-29T09:22:30;3.67;;;0.52;;
68800;SDS011;55784;50.734;7.086;2022-12-29T09:24:56;2.70;;;0.40;;
68800;SDS011;55784;50.734;7.086;2022-12-29T09:27:24;3.28;;;0.50;;
68800;SDS011;55784;50.734;7.086;2022-12-29T09:29:53;3.67;;;0.50;;
68800;SDS011;55784;50.734;7.086;2022-12-29T09:32:25;2.58;;;0.50;;
68800;SDS011;55784;50.734;7.086;2022-12-29T09:34:54;6.27;;;0.70;;
68800;SDS011;55784;50.734;7.086;2022-12-29T09:37:23;4.45;;;0.50;;
68800;SDS011;55784;50.734;7.086;2022-12-29T09:45:48;4.22;;;0.40;;
68800;SDS011;55784;50.734;7.086;2022-12-29T09:48:25;3.22;;;0.30;;
68800;SDS011;55784;50.734;7.086;2022-12-29T09:51:02;1.92;;;0.30;;
68800;SDS011;55784;50.734;7.086;2022-12-29T09:53:41;3.65;;;0.40;;
68800;SDS011;55784;50.734;7.086;2022-12-29T09:56:26;3.87;;;0.53;;
68800;SDS011;55784;50.734;7.086;2022-12-29T09:59:21;3.97;;;0.50;;
68800;SDS011;55784;50.734;7.086;2022-12-29T10:08:42;4.10;;;0.50;;
68800;SDS011;55784;50.734;7.086;2022-12-29T10:17:53;4.57;;;0.40;;
68800;SDS011;55784;50.734;7.086;2022-12-29T10:24:19;5.53;;;0.50;;
68800;SDS011;55784;50.734;7.086;2022-12-29T10:27:35;2.40;;;0.40;;
68800;SDS011;55784;50.734;7.086;2022-12-29T10:30:15;3.85;;;0.40;;
68800;SDS011;55784;50.734;7.086;2022-12-29T10:35:23;4.22;;;0.60;;
68800;SDS011;55784;50.734;7.086;2022-12-29T10:44:37;5.40;;;0.60;;
68800;SDS011;55784;50.734;7.086;2022-12-29T10:47:19;2.85;;;0.50;;
68800;SDS011;55784;50.734;7.086;2022-12-29T10:50:15;4.55;;;0.60;;
68800;SDS011;55784;50.734;7.086;2022-12-29T10:53:07;4.93;;;0.63;;
68800;SDS011;55784;50.734;7.086;2022-12-29T11:16:46;4.45;;;0.57;;
68800;SDS011;55784;50.734;7.086;2022-12-29T11:19:27;5.07;;;0.75;;
68800;SDS011;55784;50.734;7.086;2022-12-29T11:21:58;7.78;;;0.80;;
68800;SDS011;55784;50.734;7.086;2022-12-29T11:25:05;6.47;;;0.90;;
68800;SDS011;55784;50.734;7.086;2022-12-29T11:27:36;5.90;;;1.10;;
68800;SDS011;55784;50.734;7.086;2022-12-29T11:30:01;5.13;;;0.60;;
68800;SDS011;55784;50.734;7.086;2022-12-29T11:32:28;6.78;;;0.80;;
68800;SDS011;55784;50.734;7.086;2022-12-29T11:35:03;8.52;;;1.27;;
68800;SDS011;55784;50.734;7.086;2022-12-29T11:37:57;5.25;;;0.60;;
68800;SDS011;55784;50.734;7.086;2022-12-29T11:41:09;5.68;;;1.05;;
68800;SDS011;55784;50.734;7.086;2022-12-29T11:44:15;5.43;;;1.15;;
68800;SDS011;55784;50.734;7.086;2022-12-29T11:46:57;5.60;;;0.70;;
68800;SDS011;55784;50.734;7.086;2022-12-29T11:59:34;6.75;;;1.08;;
68800;SDS011;55784;50.734;7.086;2022-12-29T12:05:39;4.60;;;0.80;;
68800;SDS011;55784;50.734;7.086;2022-12-29T12:11:53;5.75;;;0.98;;
68800;SDS011;55784;50.734;7.086;2022-12-29T12:21:49;3.70;;;0.40;;
68800;SDS011;55784;50.734;7.086;2022-12-29T12:27:51;4.32;;;0.50;;
68800;SDS011;55784;50.734;7.086;2022-12-29T12:31:13;7.97;;;0.90;;
68800;SDS011;55784;50.734;7.086;2022-12-29T12:34:00;6.50;;;1.08;;
68800;SDS011;55784;50.734;7.086;2022-12-29T12:58:55;5.00;;;0.68;;
68800;SDS011;55784;50.734;7.086;2022-12-29T13:27:20;8.40;;;0.90;;
68800;SDS011;55784;50.734;7.086;2022-12-29T14:43:30;5.37;;;0.70;;
68800;SDS011;55784;50.734;7.086;2022-12-29T14:49:27;5.90;;;0.70;;
68800;SDS011;55784;50.734;7.086;2022-12-29T14:52:06;6.53;;;0.80;;
68800;SDS011;55784;50.734;7.086;2022-12-29T14:57:34;7.53;;;0.70;;
68800;SDS011;55784;50.734;7.086;2022-12-29T15:00:37;5.15;;;0.70;;
68800;SDS011;55784;50.734;7.086;2022-12-29T15:03:29;7.20;;;1.13;;
68800;SDS011;55784;50.734;7.086;2022-12-29T15:06:36;7.10;;;0.90;;
68800;SDS011;55784;50.734;7.086;2022-12-29T15:16:56;6.03;;;1.05;;
68800;SDS011;55784;50.734;7.086;2022-12-29T15:19:52;6.20;;;1.00;;
68800;SDS011;55784;50.734;7.086;2022-12-29T15:22:44;7.97;;;1.73;;
68800;SDS011;55784;50.734;7.086;2022-12-29T15:25:34;5.45;;;1.20;;
68800;SDS011;55784;50.734;7.086;2022-12-29T15:28:14;6.10;;;0.83;;
68800;SDS011;55784;50.734;7.086;2022-12-29T15:55:19;6.03;;;1.20;;
68800;SDS011;55784;50.734;7.086;2022-12-29T16:01:42;7.77;;;1.30;;
68800;SDS011;55784;50.734;7.086;2022-12-29T16:04:30;11.50;;;2.55;;
68800;SDS011;55784;50.734;7.086;2022-12-29T16:14:20;8.00;;;2.05;;
68800;SDS011;55784;50.734;7.086;2022-12-29T16:17:56;6.33;;;1.30;;
68800;SDS011;55784;50.734;7.086;2022-12-29T16:24:42;8.38;;;1.20;;
68800;SDS011;55784;50.734;7.086;2022-12-29T16:45:00;7.47;;;1.60;;
68800;SDS011;55784;50.734;7.086;2022-12-29T17:17:39;8.23;;;1.40;;
68800;SDS011;55784;50.734;7.086;2022-12-29T18:29:06;9.02;;;1.50;;
68800;SDS011;55784;50.734;7.086;2022-12-29T18:41:29;8.35;;;1.30;;
68800;SDS011;55784;50.734;7.086;2022-12-29T18:43:56;9.63;;;1.17;;
68800;SDS011;55784;50.734;7.086;2022-12-29T18:46:22;8.05;;;1.52;;
68800;SDS011;55784;50.734;7.086;2022-12-29T18:48:48;8.40;;;1.50;;
68800;SDS011;55784;50.734;7.086;2022-12-29T18:51:22;9.05;;;1.45;;
68800;SDS011;55784;50.734;7.086;2022-12-29T18:54:32;7.25;;;1.23;;
68800;SDS011;55784;50.734;7.086;2022-12-29T20:32:37;7.18;;;0.70;;
68800;SDS011;55784;50.734;7.086;2022-12-29T20:35:09;6.32;;;0.85;;
68800;SDS011;55784;50.734;7.086;2022-12-29T20:37:52;5.93;;;0.50;;
68800;SDS011;55784;50.734;7.086;2022-12-29T20:40:21;5.07;;;0.67;;
68800;SDS011;55784;50.734;7.086;2022-12-29T20:42:50;5.80;;;0.57;;
68800;SDS011;55784;50.734;7.086;2022-12-29T20:48:58;6.50;;;0.90;;
68800;SDS011;55784;50.734;7.086;2022-12-29T20:51:26;6.55;;;0.70;;
68800;SDS011;55784;50.734;7.086;2022-12-29T20:53:56;4.43;;;0.70;;
68800;SDS011;55784;50.734;7.086;2022-12-29T20:57:13;5.13;;;0.70;;
68800;SDS011;55784;50.734;7.086;2022-12-29T20:59:48;7.93;;;0.70;;
68800;SDS011;55784;50.734;7.086;2022-12-29T21:02:43;7.05;;;1.40;;
68800;SDS011;55784;50.734;7.086;2022-12-29T21:05:19;5.18;;;0.80;;
68800;SDS011;55784;50.734;7.086;2022-12-29T21:07:54;7.83;;;1.20;;
68800;SDS011;55784;50.734;7.086;2022-12-29T21:10:27;7.22;;;1.10;;
68800;SDS011;55784;50.734;7.086;2022-12-29T21:12:52;8.02;;;1.10;;
68800;SDS011;55784;50.734;7.086;2022-12-29T21:15:18;4.90;;;1.00;;
68800;SDS011;55784;50.734;7.086;2022-12-29T21:17:54;7.22;;;1.15;;
68800;SDS011;55784;50.734;7.086;2022-12-29T21:20:20;8.40;;;1.45;;
68800;SDS011;55784;50.734;7.086;2022-12-29T21:23:00;7.13;;;1.13;;
68800;SDS011;55784;50.734;7.086;2022-12-29T21:25:52;7.32;;;1.10;;
68800;SDS011;55784;50.734;7.086;2022-12-29T21:28:30;8.07;;;1.00;;
68800;SDS011;55784;50.734;7.086;2022-12-29T21:38:47;7.60;;;1.08;;
68800;SDS011;55784;50.734;7.086;2022-12-29T21:41:16;9.60;;;1.27;;
68800;SDS011;55784;50.734;7.086;2022-12-29T21:43:45;7.60;;;1.38;;
68800;SDS011;55784;50.734;7.086;2022-12-29T21:46:34;7.60;;;1.20;;
68800;SDS011;55784;50.734;7.086;2022-12-29T21:54:14;8.07;;;1.30;;
68800;SDS011;55784;50.734;7.086;2022-12-29T21:57:02;7.45;;;1.25;;
68800;SDS011;55784;50.734;7.086;2022-12-29T21:59:29;7.45;;;1.30;;
68800;SDS011;55784;50.734;7.086;2022-12-29T22:05:03;8.85;;;1.20;;
68800;SDS011;55784;50.734;7.086;2022-12-29T22:07:48;8.13;;;1.85;;
68800;SDS011;55784;50.734;7.086;2022-12-29T22:16:33;8.50;;;1.30;;
68800;SDS011;55784;50.734;7.086;2022-12-29T22:18:58;6.72;;;1.42;;
